Latest Weather Observations for Mount Gambier

IDS60801

Issued at 5:31 am CST Friday 29 July 2016 (issued every 30 minutes, with the page automatically refreshed every 10 minutes)

About weather observations | Map of weather stations | Latest weather observations for SA | Other Formats
Station Details ID: 026021 Name: MOUNT GAMBIER AERO Lat: -37.75 Lon: 140.77 Height: 63.0 m
Data from the previous 72 hours. | See also: Recent months at Mount Gambier
Date/Time
CST
Temp
°C
App
Temp
°C
Dew
Point
°C
Rel
Hum
%
Delta-T
°C
Wind Press
QNH
hPa
Press
MSL
hPa
Rain since
9am
mm
Dir  Spd
km/h
Gust
km/h
Spd
kts
Gust
kts
29/05:30am 11.4 8.8 10.8 96 0.3 WNW 15 26 8 14 1020.6 1020.7 1.0
29/05:24am 11.4 8.4 10.8 96 0.3 NW 17 22 9 12 1020.7 1020.8 1.0
29/05:19am 11.4 8.4 10.6 95 0.4 NW 17 22 9 12 1020.6 1020.7 1.0
29/05:00am 11.2 8.5 10.4 95 0.4 NW 15 19 8 10 1020.5 1020.6 1.0
29/04:50am 11.3 7.9 10.5 95 0.4 NW 19 28 10 15 1020.4 1020.5 1.0
29/04:30am 11.6 7.4 11.0 96 0.3 WNW 24 33 13 18 1020.5 1020.6 1.0
29/04:19am 11.8 7.9 10.8 94 0.5 NW 22 33 12 18 1020.2 1020.3 0.4
29/04:07am 12.0 8.4 10.4 90 0.8 NW 20 32 11 17 1020.2 1020.3 0.4
29/04:00am 11.9 7.9 10.5 91 0.7 NW 22 32 12 17 1020.2 1020.3 0.4
29/03:30am 11.9 7.9 10.5 91 0.7 NW 22 32 12 17 1020.2 1020.3 0.4
29/03:00am 11.8 7.8 10.6 92 0.6 NW 22 32 12 17 1020.5 1020.6 0.4
29/02:50am 11.9 7.9 10.5 91 0.7 NW 22 32 12 17 1020.6 1020.7 0.4
29/02:30am 11.7 7.3 10.3 91 0.7 NW 24 33 13 18 1020.7 1020.8 0.4
29/02:00am 11.6 7.2 10.4 92 0.6 NW 24 35 13 19 1020.7 1020.8 0.4
29/01:30am 11.7 7.8 10.7 94 0.5 NW 22 33 12 18 1020.9 1021.0 0.4
29/01:00am 11.5 8.0 10.3 92 0.6 NW 19 28 10 15 1021.0 1021.1 0.4
29/12:30am 11.1 7.4 10.3 95 0.4 NNW 20 28 11 15 1021.2 1021.3 0.4
29/12:04am 11.0 7.3 10.2 95 0.4 NNW 20 28 11 15 1021.3 1021.4 0.4
29/12:00am 10.9 7.4 10.1 95 0.4 NNW 19 26 10 14 1021.3 1021.4 0.4
 
Date/Time
CST
Temp
°C
App
Temp
°C
Dew
Point
°C
Rel
Hum
%
Delta-T
°C
Wind Press
QNH
hPa
Press
MSL
hPa
Rain since
9am
mm
Dir  Spd
km/h
Gust
km/h
Spd
kts
Gust
kts
28/11:30pm 10.8 7.2 10.0 95 0.4 NNW 19 28 10 15 1021.5 1021.6 0.4
28/11:00pm 10.9 7.4 10.1 95 0.4 NNW 19 28 10 15 1021.8 1022.0 0.4
28/10:31pm 11.1 7.5 9.9 92 0.6 NW 19 24 10 13 1022.0 1022.2 0.4
28/10:30pm 11.1 7.5 9.9 92 0.6 NW 19 24 10 13 1022.0 1022.2 0.4
28/10:13pm 11.0 7.4 10.0 93 0.5 NNW 19 24 10 13 1022.3 1022.5 0.4
28/10:00pm 11.0 7.3 10.0 93 0.5 NNW 20 28 11 15 1022.4 1022.6 0.4
28/09:30pm 10.9 7.2 10.1 95 0.4 NNW 20 26 11 14 1022.6 1022.8 0.4
28/09:00pm 10.9 7.2 10.1 95 0.4 NNW 20 30 11 16 1022.6 1022.8 0.4
28/08:36pm 11.1 7.6 10.1 94 0.5 NNW 19 26 10 14 1022.8 1023.0 0.4
28/08:30pm 11.0 7.5 10.2 95 0.4 NNW 19 26 10 14 1022.8 1023.0 0.4
28/08:27pm 11.0 7.3 10.2 95 0.4 NNW 20 28 11 15 1022.8 1023.0 0.4
28/08:13pm 11.1 7.6 10.1 94 0.5 NNW 19 28 10 15 1022.9 1023.1 0.4
28/08:00pm 11.2 7.5 10.0 92 0.6 NNW 20 26 11 14 1023.0 1023.2 0.2
28/07:30pm 11.7 7.8 9.3 85 1.2 NNW 20 28 11 15 1023.0 1023.2 0.2
28/07:00pm 11.7 7.4 9.3 85 1.2 NW 22 30 12 16 1023.2 1023.4 0.2
28/06:30pm 11.9 7.9 9.1 83 1.4 NW 20 28 11 15 1023.0 1023.2 0.2
28/06:00pm 12.1 7.7 8.9 81 1.6 NW 22 33 12 18 1023.0 1023.2 0.2
28/05:30pm 12.3 8.2 8.7 79 1.8 NW 20 32 11 17 1022.9 1023.1 0.2
28/05:00pm 12.6 7.7 8.4 75 2.1 NW 24 33 13 18 1022.7 1022.9 0.2
28/04:30pm 12.6 6.6 8.8 77 1.9 NW 30 37 16 20 1022.8 1023.0 0.2
28/04:00pm 13.1 8.3 8.9 75 2.1 NW 24 32 13 17 1022.9 1023.1 0.2
28/03:30pm 13.4 7.8 8.6 73 2.4 NW 28 35 15 19 1023.0 1023.2 0.2
28/03:00pm 13.8 8.5 8.4 70 2.7 WNW 26 37 14 20 1022.8 1023.0 0.2
28/02:30pm 13.6 8.1 9.1 74 2.3 WNW 28 39 15 21 1022.8 1023.0 0.2
28/02:00pm 14.2 7.5 8.2 67 3.0 NW 33 44 18 24 1022.8 1023.0 0.2
28/01:38pm 14.6 8.8 9.5 71 2.6 NW 30 48 16 26 1022.9 1023.1 0.2
28/01:30pm 14.2 8.0 9.5 73 2.4 NW 32 43 17 23 1022.9 1023.1 0.2
28/01:10pm 13.5 7.9 8.7 73 2.4 WNW 28 50 15 27 1023.0 1023.2 0.2
28/01:00pm 14.1 8.2 9.0 71 2.6 WNW 30 44 16 24 1023.2 1023.4 0.2
28/12:30pm 14.6 8.7 9.1 69 2.8 NW 30 39 16 21 1023.5 1023.7 0.2
28/12:00pm 13.4 7.3 9.7 78 1.9 WNW 32 39 17 21 1023.9 1024.1 0.2
28/11:30am 14.3 9.2 10.5 78 2.0 WNW 28 35 15 19 1024.0 1024.2 0.2
28/11:10am 13.2 9.4 11.1 87 1.1 WNW 22 32 12 17 1024.3 1024.5 0.2
28/11:00am 12.6 7.3 11.3 92 0.7 WNW 30 44 16 24 1024.4 1024.6 0.2
28/10:45am 13.0 9.7 10.9 87 1.1 WNW 19 28 10 15 1024.4 1024.6 0.2
28/10:30am 13.4 9.6 11.1 86 1.2 WNW 22 32 12 17 1024.4 1024.6 0.2
28/10:00am 12.3 10.1 10.8 90 0.8 WNW 13 17 7 9 1024.4 1024.6 0.0
28/09:45am 11.3 8.2 10.3 94 0.5 NW 17 20 9 11 1024.4 1024.6 0.0
28/09:30am 10.9 8.5 9.9 93 0.5 NW 13 17 7 9 1024.4 1024.6 0.0
28/09:00am 10.2 6.8 9.2 93 0.5 NNW 17 20 9 11 1024.5 1024.7 1.2
28/08:56am 10.3 6.9 9.1 92 0.6 NNW 17 20 9 11 1024.4 1024.6 1.2
28/08:30am 10.2 7.1 9.0 92 0.6 NNW 15 19 8 10 1024.1 1024.3 1.2
28/08:00am 9.7 6.6 8.7 93 0.5 NW 15 19 8 10 1023.7 1023.9 1.2
28/07:30am 9.2 5.6 8.2 93 0.5 NNW 17 22 9 12 1023.6 1023.8 1.2
28/07:00am 9.3 6.0 8.0 92 0.6 NNW 15 20 8 11 1023.3 1023.5 1.0
28/06:30am 9.4 5.8 8.2 92 0.6 NNW 17 20 9 11 1023.1 1023.3 1.0
28/06:00am 9.5 5.5 8.3 92 0.6 NW 19 26 10 14 1023.1 1023.3 1.0
28/05:30am 9.2 5.9 8.2 93 0.5 NW 15 19 8 10 1023.2 1023.4 1.0
28/05:00am 9.4 5.7 7.9 90 0.7 NW 17 22 9 12 1023.1 1023.3 1.0
28/04:30am 9.4 5.8 8.2 92 0.6 NW 17 24 9 13 1022.9 1023.1 1.0
28/04:00am 9.0 5.7 8.0 93 0.5 NW 15 19 8 10 1022.6 1022.8 1.0
28/03:30am 8.8 5.9 8.0 95 0.4 NW 13 19 7 10 1022.7 1022.9 1.0
28/03:00am 8.5 4.8 7.9 96 0.3 NNW 17 20 9 11 1022.8 1023.0 1.0
28/02:30am 8.8 6.3 8.2 96 0.3 NW 11 13 6 7 1023.1 1023.3 1.0
28/02:00am 8.6 5.7 8.2 97 0.2 NNW 13 15 7 8 1023.0 1023.2 0.8
28/01:56am 8.8 5.5 8.2 96 0.3 NNW 15 19 8 10 1023.0 1023.2 0.8
28/01:40am 9.1 5.9 8.5 96 0.3 NW 15 19 8 10 1023.1 1023.3 0.8
28/01:30am 8.9 6.0 8.3 96 0.3 NW 13 17 7 9 1023.1 1023.3 0.8
28/01:00am 9.2 5.7 8.8 97 0.2 NW 17 20 9 11 1022.9 1023.1 0.8
28/12:57am 9.2 5.7 8.6 96 0.3 NW 17 22 9 12 1022.8 1023.0 0.8
28/12:55am 9.2 5.3 8.6 96 0.3 NW 19 24 10 13 1022.9 1023.1 0.8
28/12:39am 9.1 6.0 8.7 97 0.2 NNW 15 17 8 9 1022.9 1023.1 0.8
28/12:30am 9.1 6.3 8.7 97 0.2 NW 13 19 7 10 1022.9 1023.1 0.8
28/12:23am 9.1 5.9 8.5 96 0.3 NW 15 19 8 10 1023.0 1023.2 0.8
28/12:17am 9.2 6.1 8.8 97 0.2 NW 15 20 8 11 1023.0 1023.2 0.8
28/12:05am 9.2 6.1 8.8 97 0.2 NW 15 19 8 10 1023.1 1023.3 0.6
28/12:02am 9.2 6.1 8.8 97 0.2 NW 15 17 8 9 1023.1 1023.3 0.6
28/12:00am 9.2 6.0 8.6 96 0.3 NW 15 20 8 11 1023.1 1023.3 0.6
 
Date/Time
CST
Temp
°C
App
Temp
°C
Dew
Point
°C
Rel
Hum
%
Delta-T
°C
Wind Press
QNH
hPa
Press
MSL
hPa
Rain since
9am
mm
Dir  Spd
km/h
Gust
km/h
Spd
kts
Gust
kts
27/11:54pm 9.2 6.0 8.6 96 0.3 NW 15 20 8 11 1023.0 1023.2 0.6
27/11:42pm 9.2 6.1 8.8 97 0.2 NW 15 22 8 12 1023.2 1023.4 0.6
27/11:40pm 9.2 6.1 8.8 97 0.2 NW 15 19 8 10 1023.2 1023.4 0.6
27/11:30pm 9.2 6.0 8.6 96 0.3 NW 15 19 8 10 1023.2 1023.4 0.4
27/11:27pm 9.1 5.9 8.5 96 0.3 NW 15 19 8 10 1023.1 1023.3 0.4
27/11:00pm 9.4 5.3 8.8 96 0.3 WNW 20 30 11 16 1023.1 1023.3 0.2
27/10:57pm 9.4 5.3 8.8 96 0.3 NW 20 26 11 14 1023.1 1023.3 0.2
27/10:55pm 9.4 5.5 8.8 96 0.3 NW 19 24 10 13 1023.1 1023.3 0.2
27/10:49pm 9.3 6.2 8.7 96 0.3 NW 15 24 8 13 1023.2 1023.4 0.2
27/10:48pm 9.3 6.2 8.7 96 0.3 NW 15 24 8 13 1023.2 1023.4 0.2
27/10:36pm 9.2 5.7 8.8 97 0.2 NW 17 22 9 12 1023.2 1023.4 0.2
27/10:30pm 9.3 6.2 8.7 96 0.3 NW 15 22 8 12 1023.2 1023.4 0.2
27/10:23pm 9.3 6.2 8.7 96 0.3 NW 15 19 8 10 1023.2 1023.4 0.2
27/10:00pm 9.2 6.0 8.6 96 0.3 NW 15 17 8 9 1023.1 1023.3 0.2
27/09:55pm 9.2 6.4 8.4 95 0.4 NW 13 17 7 9 1023.1 1023.3 0.2
27/09:53pm 9.2 6.4 8.4 95 0.4 NW 13 19 7 10 1023.0 1023.2 0.2
27/09:41pm 9.3 6.5 8.5 95 0.4 NW 13 19 7 10 1023.0 1023.2 0.2
27/09:30pm 9.0 6.5 8.4 96 0.3 NW 11 13 6 7 1023.1 1023.3 0.2
27/09:14pm 9.1 6.7 8.5 96 0.3 WNW 11 13 6 7 1023.1 1023.3 0.2
27/09:06pm 9.1 6.2 8.3 95 0.4 NW 13 17 7 9 1022.9 1023.1 0.2
27/09:00pm 8.8 5.9 8.2 96 0.3 NNW 13 17 7 9 1022.9 1023.1 0.2
27/08:50pm 9.1 7.0 8.3 95 0.4 NW 9 11 5 6 1023.0 1023.2 0.2
27/08:31pm 9.2 6.7 8.4 95 0.4 NW 11 15 6 8 1022.9 1023.1 0.0
27/08:30pm 9.2 6.7 8.4 95 0.4 NNW 11 15 6 8 1022.9 1023.1 0.0
27/08:12pm 9.5 5.9 8.3 92 0.6 NW 17 22 9 12 1023.1 1023.3 0.0
27/08:00pm 9.4 5.4 8.2 92 0.6 NNW 19 33 10 18 1023.1 1023.3 0.0
27/07:30pm 9.9 6.5 7.6 85 1.1 NW 15 19 8 10 1023.0 1023.2 0.0
27/07:00pm 10.2 6.2 6.8 79 1.6 WNW 17 26 9 14 1022.7 1022.9 0.0
27/06:30pm 10.6 6.4 5.6 71 2.3 NW 17 24 9 13 1021.8 1022.0 0.0
27/06:00pm 10.3 5.6 6.0 75 2.0 WNW 20 28 11 15 1021.5 1021.6 0.0
27/05:30pm 10.3 6.1 5.5 72 2.2 WNW 17 22 9 12 1021.5 1021.6 0.0
27/05:00pm 10.3 6.4 5.5 72 2.2 WNW 15 22 8 12 1021.3 1021.4 0.0
27/04:30pm 10.2 5.5 5.9 74 2.0 W 20 30 11 16 1021.0 1021.1 0.0
27/04:00pm 10.4 6.6 5.8 73 2.1 WNW 15 22 8 12 1020.9 1021.0 0.0
27/03:30pm 10.6 5.7 5.1 69 2.5 W 20 30 11 16 1020.8 1020.9 0.0
27/03:00pm 10.5 3.7 5.0 69 2.5 W 30 43 16 23 1020.8 1020.9 0.0
27/02:30pm 11.1 3.9 3.1 58 3.5 W 30 39 16 21 1020.2 1020.3 0.0
27/02:00pm 10.8 4.6 4.1 63 3.0 W 26 35 14 19 1020.0 1020.1 0.0
27/01:30pm 10.9 3.2 3.4 60 3.3 WSW 33 48 18 26 1019.7 1019.8 0.0
27/01:00pm 10.8 4.3 4.6 65 2.8 WSW 28 37 15 20 1019.6 1019.7 0.0
27/12:30pm 11.9 6.1 4.6 61 3.3 W 24 33 13 18 1019.5 1019.6 0.0
27/12:00pm 11.0 4.1 2.7 56 3.6 WSW 28 35 15 19 1019.4 1019.5 0.0
27/11:30am 10.8 4.3 2.7 57 3.5 WSW 26 35 14 19 1019.5 1019.6 0.0
27/11:00am 10.6 4.9 2.7 58 3.4 W 22 37 12 20 1019.5 1019.6 0.0
27/10:30am 9.6 4.5 3.9 67 2.5 W 20 28 11 15 1019.2 1019.3 0.0
27/10:00am 9.4 5.4 4.9 73 2.0 W 15 20 8 11 1018.8 1018.9 0.0
27/09:30am 8.6 5.1 5.5 81 1.4 WSW 13 17 7 9 1018.3 1018.4 0.0
27/09:00am 9.0 4.2 4.7 74 1.9 WSW 19 28 10 15 1017.9 1018.0 15.8
27/08:30am 8.1 4.1 4.9 80 1.4 WSW 15 19 8 10 1017.6 1017.7 15.8
27/08:00am 8.0 3.0 3.8 75 1.8 WSW 19 28 10 15 1017.0 1017.1 15.8
27/07:30am 7.8 3.3 4.4 79 1.5 WSW 17 20 9 11 1016.4 1016.5 15.8
27/07:00am 7.9 2.8 4.0 76 1.7 WSW 20 28 11 15 1015.9 1016.0 15.8
27/06:37am 7.8 2.8 4.6 80 1.4 SW 20 26 11 14 1015.3 1015.4 15.8
27/06:30am 7.5 1.9 5.3 86 1.0 SW 24 35 13 19 1014.9 1015.0 15.8
27/06:27am 7.6 1.9 5.1 84 1.1 SW 24 37 13 20 1014.9 1015.0 15.8
27/06:00am 8.0 3.2 4.6 79 1.5 SSW 19 28 10 15 1014.0 1014.1 15.8
27/05:30am 8.2 3.1 4.3 76 1.7 SW 20 30 11 16 1013.5 1013.6 15.8
27/05:00am 7.6 1.9 5.1 84 1.1 SSW 24 41 13 22 1012.5 1012.6 15.8
27/04:30am 8.1 1.9 4.5 78 1.6 SSW 26 37 14 20 1011.6 1011.7 15.8
27/04:00am 8.6 1.8 6.7 88 0.9 SW 32 41 17 22 1010.5 1010.7 15.8
27/03:30am 9.1 1.8 7.2 88 0.9 SW 35 50 19 27 1009.7 1009.9 15.8
27/03:27am 9.0 1.7 7.3 89 0.8 SW 35 50 19 27 1009.6 1009.8 15.8
27/03:13am 9.2 2.7 8.0 92 0.6 SW 32 54 17 29 1009.2 1009.3 15.8
27/03:09am 9.3 2.9 8.5 95 0.4 SW 32 43 17 23 1009.1 1009.2 15.8
27/03:00am 9.4 3.0 8.6 95 0.4 SW 32 46 17 25 1008.9 1009.0 15.8
27/02:37am 9.7 4.0 8.3 91 0.7 WSW 28 50 15 27 1008.3 1008.4 14.6
27/02:30am 9.4 3.7 8.2 92 0.6 WSW 28 39 15 21 1008.1 1008.2 14.6
27/02:00am 9.3 4.3 8.1 92 0.6 WSW 24 32 13 17 1007.3 1007.4 14.6
27/01:30am 9.1 3.3 8.1 93 0.5 WSW 28 39 15 21 1006.8 1006.9 14.6
27/01:00am 8.5 4.7 7.4 93 0.5 W 17 24 9 13 1006.2 1006.3 14.2
27/12:30am 8.1 4.2 7.3 95 0.4 WNW 17 22 9 12 1005.8 1005.9 14.2
27/12:00am 8.0 4.5 7.1 94 0.4 W 15 17 8 9 1005.4 1005.5 14.2
 
Date/Time
CST
Temp
°C
App
Temp
°C
Dew
Point
°C
Rel
Hum
%
Delta-T
°C
Wind Press
QNH
hPa
Press
MSL
hPa
Rain since
9am
mm
Dir  Spd
km/h
Gust
km/h
Spd
kts
Gust
kts
26/11:30pm 8.4 4.2 7.6 95 0.4 W 19 30 10 16 1004.7 1004.8 14.2
26/11:00pm 8.3 4.9 7.7 96 0.3 WNW 15 19 8 10 1004.5 1004.6 14.2
26/10:37pm 8.1 5.1 7.7 97 0.2 NW 13 19 7 10 1004.0 1004.1 14.2
26/10:30pm 8.3 5.0 7.9 97 0.2 NW 15 22 8 12 1003.9 1004.0 14.2
26/10:20pm 8.1 4.8 7.9 99 0.1 NW 15 19 8 10 1003.7 1003.8 14.0
26/10:00pm 7.7 3.9 7.5 99 0.1 NNW 17 24 9 13 1003.3 1003.4 13.4
26/09:30pm 7.9 3.5 7.5 97 0.2 NNW 20 28 11 15 1003.0 1003.1 13.4
26/09:00pm 8.0 3.3 7.6 97 0.2 NNW 22 30 12 16 1002.5 1002.6 12.8
26/08:30pm 7.7 3.4 7.1 96 0.3 N 19 28 10 15 1002.1 1002.2 12.6
26/08:22pm 7.8 3.4 7.2 96 0.3 NNW 20 30 11 16 1002.0 1002.1 12.6
26/08:00pm 8.2 3.8 7.4 95 0.4 NNW 20 30 11 16 1002.0 1002.1 12.6
26/07:30pm 8.1 3.3 7.5 96 0.3 NNW 22 35 12 19 1001.9 1002.0 12.4
26/07:12pm 7.9 2.7 7.3 96 0.3 N 24 43 13 23 1001.9 1002.0 12.0
26/07:03pm 7.9 2.7 7.3 96 0.3 N 24 35 13 19 1001.7 1001.8 11.4
26/07:00pm 7.9 2.3 7.3 96 0.3 N 26 35 14 19 1001.7 1001.8 11.2
26/06:54pm 7.9 2.3 7.3 96 0.3 N 26 41 14 22 1001.7 1001.8 11.2
26/06:30pm 7.9 2.4 7.5 97 0.2 N 26 33 14 18 1001.9 1002.0 10.8
26/06:00pm 8.0 2.1 7.4 96 0.3 N 28 41 15 22 1002.4 1002.5 10.4
26/05:39pm 8.1 2.5 7.3 95 0.4 N 26 37 14 20 1002.5 1002.6 9.2
26/05:30pm 8.1 2.9 7.3 95 0.4 N 24 39 13 21 1002.5 1002.6 9.2
26/05:17pm 8.1 2.2 7.3 95 0.4 N 28 39 15 21 1002.8 1002.9 9.0
26/05:06pm 8.0 2.1 7.4 96 0.3 N 28 52 15 28 1002.7 1002.8 8.8
26/05:00pm 8.0 2.8 7.1 94 0.4 N 24 35 13 19 1002.7 1002.8 8.6
26/04:30pm 8.0 2.4 7.1 94 0.4 N 26 37 14 20 1003.2 1003.3 8.6
26/04:00pm 7.8 3.9 7.2 96 0.3 N 17 33 9 18 1003.8 1003.9 7.8
26/03:30pm 7.4 3.4 6.8 96 0.3 N 17 28 9 15 1005.0 1005.1 4.8
26/03:00pm 7.7 3.3 6.6 93 0.5 N 19 26 10 14 1005.3 1005.4 2.2
26/02:30pm 7.8 2.4 6.5 91 0.6 NNW 24 37 13 20 1005.9 1006.0 2.0
26/02:15pm 7.9 1.4 6.4 90 0.7 NNW 30 48 16 26 1006.1 1006.2 1.6
26/02:00pm 8.4 3.1 6.9 90 0.7 N 24 35 13 19 1006.3 1006.4 1.4
26/01:30pm 9.4 4.5 7.1 85 1.1 N 22 32 12 17 1006.9 1007.0 1.2
26/01:00pm 8.6 3.3 6.7 88 0.9 N 24 33 13 18 1007.4 1007.5 1.2
26/12:30pm 8.2 4.2 6.7 90 0.7 N 17 26 9 14 1008.2 1008.3 1.2
26/12:00pm 7.5 3.8 6.2 91 0.6 N 15 24 8 13 1009.0 1009.1 1.0
26/11:30am 8.0 3.2 5.8 86 1.0 N 20 30 11 16 1009.7 1009.9 0.0
26/11:00am 8.8 4.2 5.7 81 1.4 NNW 19 28 10 15 1009.8 1010.0 0.0
26/10:30am 8.3 3.4 5.2 81 1.4 N 20 30 11 16 1010.1 1010.3 0.0
26/10:00am 7.8 3.0 4.9 82 1.3 N 19 28 10 15 1010.5 1010.7 0.0
26/09:30am 6.8 2.0 4.5 85 1.0 N 19 26 10 14 1010.5 1010.7 0.0
26/09:00am 6.2 1.8 4.6 89 0.7 N 17 26 9 14 1011.0 1011.1 11.6
26/08:59am 6.2 1.8 4.6 89 0.7 N 17 26 9 14 1011.1 1011.2 11.6
26/08:42am 6.0 1.6 4.6 91 0.6 N 17 26 9 14 1011.0 1011.1 11.6
26/08:30am 6.1 1.7 4.5 89 0.7 NNW 17 22 9 12 1010.9 1011.0 11.6
26/08:00am 5.3 1.1 3.9 91 0.6 NNW 15 19 8 10 1010.9 1011.0 11.4
26/07:30am 4.6 -0.5 3.1 90 0.6 N 19 28 10 15 1011.1 1011.2 11.4
26/07:00am 3.9 -1.4 2.9 93 0.4 N 20 28 11 15 1011.1 1011.2 11.4
26/06:30am 2.5 -1.7 1.7 94 0.3 N 13 19 7 10 1010.6 1010.8 11.4
26/06:00am 3.1 -1.0 2.3 94 0.3 N 13 15 7 8 1010.5 1010.7 11.4

Other Formats:

Comma delimited format used in spreadsheet applications
http://www.bom.gov.au/fwo/IDS60801/IDS60801.94821.axf

JavaScript Object Notation format (JSON) in row-major order
http://www.bom.gov.au/fwo/IDS60801/IDS60801.94821.json